Time;durP1;ratioP1;P1;durP2;ratioP2;P2;SDS_P1;SDS_P2;PMS_P1;PMS_P2;Temp;Humidity;BMP_temperature;BMP_pressure;BME280_temperature;BME280_humidity;BME280_pressure;Samples;Min_cycle;Max_cycle;Signal;HPM_P1;HPM_P2
2021/12/26 00:08:21;;;;;;;40.60;18.60;;;;;;;-7.78;71.46;100134.70;103635;1313;22631;-76
2021/12/26 00:14:28;;;;;;;34.20;16.50;;;;;;;-7.84;70.93;100128.53;104300;1316;24119;-74
2021/12/26 00:16:54;;;;;;;39.60;18.50;;;;;;;-7.93;71.11;100132.58;103653;1316;24243;-76
2021/12/26 00:19:22;;;;;;;43.00;20.20;;;;;;;-8.03;71.11;100138.35;103721;1316;24209;-76
2021/12/26 00:22:33;;;;;;;33.40;16.20;;;;;;;-8.08;71.18;100147.27;103644;1316;22779;-80
2021/12/26 00:42:42;;;;;;;34.40;16.50;;;;;;;-8.02;71.92;100145.02;103610;1311;22746;-76
2021/12/26 00:49:34;;;;;;;38.50;17.10;;;;;;;-7.91;71.89;100143.33;103083;1322;25352;-77
2021/12/26 00:52:06;;;;;;;26.20;12.10;;;;;;;-7.83;71.86;100140.90;103151;1322;22650;-77
2021/12/26 00:54:34;;;;;;;32.20;15.10;;;;;;;-7.81;71.68;100141.55;103048;1325;25297;-77
2021/12/26 00:57:03;;;;;;;33.00;14.40;;;;;;;-7.86;71.42;100138.69;103111;1322;22618;-77
2021/12/26 00:59:31;;;;;;;30.50;13.30;;;;;;;-7.98;71.18;100145.66;103109;1321;25760;-77
2021/12/26 01:01:59;;;;;;;27.50;12.90;;;;;;;-8.05;71.43;100154.40;103045;1322;22691;-77
2021/12/26 01:04:26;;;;;;;29.00;14.80;;;;;;;-8.12;71.53;100153.48;103393;1316;26539;-77
2021/12/26 01:06:54;;;;;;;34.00;14.90;;;;;;;-8.10;72.09;100141.28;103616;1316;26566;-74
2021/12/26 01:09:26;;;;;;;36.00;17.30;;;;;;;-8.10;71.85;100140.69;103628;1316;22766;-77
2021/12/26 01:12:00;;;;;;;34.80;17.60;;;;;;;-8.13;71.63;100143.16;103494;1316;22574;-77
2021/12/26 01:14:33;;;;;;;38.10;17.60;;;;;;;-8.10;71.79;100146.63;103601;1316;26533;-77
2021/12/26 01:17:22;;;;;;;34.10;15.60;;;;;;;-8.05;71.70;100146.23;103127;1322;25399;-77
2021/12/26 01:19:58;;;;;;;27.20;12.60;;;;;;;-8.05;71.75;100146.93;103002;1322;25236;-74
2021/12/26 01:22:26;;;;;;;37.60;16.50;;;;;;;-8.06;71.72;100153.86;102689;1322;25384;-74
2021/12/26 01:25:13;;;;;;;35.60;15.60;;;;;;;-8.02;71.86;100150.02;102137;1328;26666;-75
2021/12/26 01:27:40;;;;;;;35.20;16.40;;;;;;;-7.99;71.91;100148.86;102255;1330;22746;-76
2021/12/26 01:30:07;;;;;;;34.20;15.00;;;;;;;-7.93;72.11;100151.39;102075;1331;22618;-77
2021/12/26 01:32:38;;;;;;;32.30;16.90;;;;;;;-7.93;71.85;100145.41;102316;1328;22713;-77
2021/12/26 01:35:25;;;;;;;33.20;15.60;;;;;;;-7.87;72.07;100144.11;102699;1324;23201;-77
2021/12/26 01:38:13;;;;;;;40.00;16.80;;;;;;;-7.86;71.96;100141.24;102917;1316;25316;-77
2021/12/26 01:41:42;;;;;;;24.50;12.10;;;;;;;-7.83;71.97;100141.45;102881;1324;22577;-77
2021/12/26 01:44:24;;;;;;;33.80;16.30;;;;;;;-7.90;71.51;100135.17;103384;1316;23065;-77
2021/12/26 01:46:52;;;;;;;27.70;11.40;;;;;;;-7.94;71.94;100138.34;103605;1314;25242;-78
2021/12/26 01:49:26;;;;;;;28.10;13.80;;;;;;;-7.97;71.70;100138.70;103318;1316;25323;-76
2021/12/26 01:51:57;;;;;;;35.60;17.30;;;;;;;-7.97;71.88;100146.21;103642;1316;22897;-78
2021/12/26 01:54:59;;;;;;;33.30;13.60;;;;;;;-8.04;71.88;100147.14;103627;1310;22637;-76
2021/12/26 01:57:19;;;;;;;27.20;15.10;;;;;;;-8.13;71.92;100148.00;103548;1316;24767;-78
2021/12/26 01:59:47;;;;;;;41.30;19.10;;;;;;;-8.16;71.90;100149.16;103706;1318;25217;-77
2021/12/26 02:02:22;;;;;;;29.70;13.70;;;;;;;-8.15;72.27;100151.40;103571;1316;25243;-77
2021/12/26 02:04:50;;;;;;;32.80;14.80;;;;;;;-8.17;72.01;100146.38;103582;1316;22547;-78
2021/12/26 02:07:16;;;;;;;36.40;16.40;;;;;;;-8.13;72.21;100152.08;103464;1316;22786;-77
2021/12/26 02:09:44;;;;;;;38.80;17.20;;;;;;;-8.12;72.40;100157.58;103580;1316;22582;-79
2021/12/26 02:12:14;;;;;;;38.70;16.80;;;;;;;-8.04;72.18;100156.01;103609;1316;23029;-77
2021/12/26 02:14:42;;;;;;;34.80;16.30;;;;;;;-7.98;72.20;100155.70;103534;1316;24144;-77
2021/12/26 02:17:22;;;;;;;33.00;14.20;;;;;;;-7.92;71.96;100157.98;103565;1316;25309;-77
2021/12/26 02:19:51;;;;;;;34.20;16.30;;;;;;;-7.93;71.94;100156.73;103276;1316;22606;-76
2021/12/26 02:22:25;;;;;;;36.70;16.80;;;;;;;-7.91;72.00;100155.45;103288;1319;22576;-78
2021/12/26 02:25:13;;;;;;;40.40;18.20;;;;;;;-7.95;71.87;100147.20;103404;1316;22572;-76
2021/12/26 02:27:43;;;;;;;39.40;16.80;;;;;;;-8.11;71.80;100149.46;103636;1316;24248;-78
2021/12/26 02:30:16;;;;;;;35.90;16.50;;;;;;;-8.17;71.77;100151.16;103510;1316;22688;-77
2021/12/26 02:32:48;;;;;;;37.50;18.50;;;;;;;-8.20;71.98;100145.30;103589;1316;22638;-78
2021/12/26 02:35:17;;;;;;;33.20;14.70;;;;;;;-8.22;71.86;100153.95;103665;1316;25594;-75
2021/12/26 02:37:45;;;;;;;38.50;18.10;;;;;;;-8.26;72.09;100155.41;103683;1316;25607;-76
2021/12/26 02:40:13;;;;;;;37.10;18.10;;;;;;;-8.22;72.21;100159.88;103451;1316;25339;-73
2021/12/26 02:42:41;;;;;;;46.70;18.80;;;;;;;-8.14;72.33;100164.16;103573;1316;24036;-74
2021/12/26 02:45:08;;;;;;;39.60;18.50;;;;;;;-8.12;72.10;100165.80;103580;1314;25411;-74
2021/12/26 02:47:35;;;;;;;42.10;17.30;;;;;;;-8.05;72.07;100166.21;103532;1316;23932;-74
2021/12/26 02:50:08;;;;;;;27.60;11.70;;;;;;;-8.05;71.86;100169.48;103507;1317;22602;-73
2021/12/26 02:52:35;;;;;;;36.40;16.70;;;;;;;-8.09;72.06;100171.83;103405;1316;22761;-72
2021/12/26 02:55:03;;;;;;;34.70;16.00;;;;;;;-8.08;72.14;100170.20;103327;1317;24257;-73
2021/12/26 02:57:30;;;;;;;33.80;16.40;;;;;;;-8.07;72.18;100175.35;102829;1323;24790;-73
2021/12/26 03:04:29;;;;;;;37.70;16.90;;;;;;;-8.04;71.96;100167.68;102880;1326;22540;-75
2021/12/26 03:07:33;;;;;;;25.90;10.60;;;;;;;-8.17;71.65;100166.01;102701;1326;25368;-75
2021/12/26 03:10:00;;;;;;;33.90;14.40;;;;;;;-8.26;72.15;100163.92;102738;1320;24287;-73
2021/12/26 03:12:30;;;;;;;27.60;13.60;;;;;;;-8.27;72.04;100170.86;102717;1326;24982;-73
2021/12/26 03:14:56;;;;;;;30.10;16.50;;;;;;;-8.32;72.04;100168.36;102647;1322;25419;-73
2021/12/26 03:17:23;;;;;;;36.00;17.20;;;;;;;-8.40;71.88;100173.44;102942;1322;25223;-74
2021/12/26 03:19:51;;;;;;;31.10;15.90;;;;;;;-8.43;72.41;100171.58;103092;1322;25252;-74
2021/12/26 03:22:18;;;;;;;37.40;16.70;;;;;;;-8.40;72.25;100169.35;103158;1320;22550;-75
2021/12/26 03:24:46;;;;;;;44.60;18.60;;;;;;;-8.38;72.26;100172.38;103112;1322;22927;-75
2021/12/26 03:27:13;;;;;;;32.40;13.60;;;;;;;-8.41;72.37;100168.61;103211;1321;25398;-75
2021/12/26 03:29:40;;;;;;;28.60;14.50;;;;;;;-8.44;72.46;100176.50;103087;1322;22800;-75
2021/12/26 03:32:12;;;;;;;32.30;14.60;;;;;;;-8.36;72.56;100180.19;103523;1319;22716;-80
2021/12/26 03:34:48;;;;;;;31.70;16.50;;;;;;;-8.35;72.37;100177.19;103445;1317;22590;-73
2021/12/26 03:37:16;;;;;;;27.80;14.10;;;;;;;-8.29;72.66;100177.08;103633;1315;22607;-77
2021/12/26 03:39:43;;;;;;;30.10;14.40;;;;;;;-8.23;72.47;100176.77;103637;1316;25306;-76
2021/12/26 03:42:11;;;;;;;26.90;14.30;;;;;;;-8.14;72.44;100182.24;103646;1316;25927;-76
2021/12/26 03:44:41;;;;;;;37.40;14.90;;;;;;;-8.20;72.00;100179.98;103393;1316;22751;-77
2021/12/26 03:47:50;;;;;;;26.50;11.60;;;;;;;-8.28;71.86;100178.13;103452;1317;23115;-77
2021/12/26 03:50:20;;;;;;;30.40;13.40;;;;;;;-8.39;71.98;100180.02;103638;1316;26533;-77
2021/12/26 03:52:50;;;;;;;32.00;13.20;;;;;;;-8.51;71.97;100171.46;103886;1316;25357;-76
2021/12/26 03:55:18;;;;;;;33.60;14.40;;;;;;;-8.59;72.18;100174.52;103682;1316;24385;-78
2021/12/26 03:57:46;;;;;;;37.80;16.50;;;;;;;-8.60;72.30;100175.67;103557;1316;22904;-76
2021/12/26 04:00:14;;;;;;;30.70;15.00;;;;;;;-8.54;72.54;100173.98;103517;1316;24265;-74
2021/12/26 04:02:43;;;;;;;30.30;14.80;;;;;;;-8.52;72.29;100173.71;103587;1315;23975;-75
2021/12/26 04:05:12;;;;;;;33.80;15.20;;;;;;;-8.53;72.42;100174.51;103526;1316;24432;-77
2021/12/26 04:07:39;;;;;;;30.80;12.70;;;;;;;-8.53;72.32;100173.14;103567;1314;24212;-75
2021/12/26 04:10:09;;;;;;;28.70;14.50;;;;;;;-8.54;72.53;100173.64;103377;1316;25212;-76
2021/12/26 04:12:37;;;;;;;28.70;15.30;;;;;;;-8.49;72.46;100174.95;103479;1316;22787;-76
2021/12/26 04:15:12;;;;;;;30.40;16.50;;;;;;;-8.45;72.61;100176.23;103476;1318;25324;-79
2021/12/26 04:17:39;;;;;;;35.70;15.70;;;;;;;-8.34;72.61;100174.52;103578;1315;23461;-75
2021/12/26 04:20:11;;;;;;;32.30;15.60;;;;;;;-8.24;72.57;100174.66;103510;1316;22574;-77
2021/12/26 04:22:39;;;;;;;35.00;14.90;;;;;;;-8.17;72.42;100168.56;103491;1316;25361;-75
2021/12/26 04:25:07;;;;;;;32.70;14.00;;;;;;;-8.09;72.08;100177.59;103638;1316;23218;-76
2021/12/26 04:27:35;;;;;;;41.30;16.20;;;;;;;-8.13;71.90;100180.24;102876;1320;22564;-79
2021/12/26 04:30:09;;;;;;;23.60;10.50;;;;;;;-8.10;71.86;100183.58;103130;1322;25551;-76
2021/12/26 04:32:37;;;;;;;36.80;16.60;;;;;;;-8.23;71.47;100186.85;103212;1321;22569;-77
2021/12/26 04:35:05;;;;;;;35.40;15.40;;;;;;;-8.40;71.65;100186.45;103148;1319;22567;-75
2021/12/26 04:37:34;;;;;;;26.60;12.90;;;;;;;-8.52;71.87;100184.20;103134;1322;23322;-76
2021/12/26 04:40:05;;;;;;;35.70;15.00;;;;;;;-8.63;72.08;100179.94;103193;1322;25432;-74
2021/12/26 04:42:43;;;;;;;21.40;10.60;;;;;;;-8.66;72.13;100178.50;103078;1322;22599;-75
2021/12/26 04:45:23;;;;;;;34.00;17.50;;;;;;;-8.71;72.31;100176.19;103144;1318;22579;-77
2021/12/26 04:48:22;;;;;;;29.80;15.20;;;;;;;-8.66;72.57;100182.59;103350;1314;22607;-74
2021/12/26 04:50:49;;;;;;;40.50;17.90;;;;;;;-8.69;72.75;100183.27;103775;1316;24254;-75
2021/12/26 04:53:16;;;;;;;41.20;17.90;;;;;;;-8.66;72.68;100185.17;103597;1316;23940;-77
2021/12/26 04:55:44;;;;;;;36.20;15.00;;;;;;;-8.67;72.98;100189.06;103680;1316;22623;-74
2021/12/26 04:58:11;;;;;;;25.60;12.20;;;;;;;-8.65;72.86;100192.07;103484;1316;25413;-76
2021/12/26 05:00:38;;;;;;;33.80;17.10;;;;;;;-8.61;72.99;100190.97;103557;1315;24321;-76
2021/12/26 05:03:07;;;;;;;29.60;14.20;;;;;;;-8.53;73.07;100194.00;103537;1315;22576;-76
2021/12/26 05:05:36;;;;;;;29.20;14.20;;;;;;;-8.49;73.05;100194.61;103577;1315;24429;-77
2021/12/26 05:08:04;;;;;;;34.20;14.70;;;;;;;-8.46;72.85;100194.79;103465;1316;25470;-76
2021/12/26 05:10:32;;;;;;;36.50;17.20;;;;;;;-8.50;72.51;100196.42;103427;1316;22590;-79
2021/12/26 05:13:00;;;;;;;33.90;15.70;;;;;;;-8.53;72.86;100194.49;103663;1316;22666;-77
2021/12/26 05:15:29;;;;;;;36.50;16.60;;;;;;;-8.49;72.81;100192.40;103514;1316;25393;-76
2021/12/26 05:17:57;;;;;;;34.00;15.70;;;;;;;-8.46;72.92;100192.92;103596;1315;24891;-76
2021/12/26 05:20:27;;;;;;;41.10;19.70;;;;;;;-8.39;72.85;100196.60;103362;1318;22573;-76
2021/12/26 05:22:56;;;;;;;26.00;12.10;;;;;;;-8.35;72.75;100197.69;103577;1317;22574;-75
2021/12/26 05:25:24;;;;;;;30.50;14.90;;;;;;;-8.42;72.30;100197.58;103507;1316;23341;-76
2021/12/26 05:27:52;;;;;;;39.80;17.80;;;;;;;-8.46;72.47;100195.31;103682;1317;22757;-76
2021/12/26 05:30:21;;;;;;;38.40;16.90;;;;;;;-8.59;72.36;100195.67;103738;1317;24337;-78
2021/12/26 05:33:23;;;;;;;32.90;15.40;;;;;;;-8.65;72.56;100199.60;103167;1319;22720;-78
2021/12/26 05:35:59;;;;;;;58.10;20.10;;;;;;;-8.68;72.75;100202.44;103692;1317;26055;-76
2021/12/26 05:38:27;;;;;;;30.60;14.40;;;;;;;-8.68;72.71;100201.30;103583;1315;25230;-77
2021/12/26 05:40:55;;;;;;;39.70;19.60;;;;;;;-8.71;72.41;100209.28;103592;1317;22583;-78
2021/12/26 05:43:47;;;;;;;34.90;16.80;;;;;;;-8.76;72.45;100213.54;103666;1317;24806;-81
2021/12/26 05:46:15;;;;;;;38.00;17.90;;;;;;;-8.81;72.56;100212.55;103660;1317;22580;-76
2021/12/26 05:48:43;;;;;;;39.30;19.80;;;;;;;-8.88;72.65;100207.70;103541;1313;22590;-75
2021/12/26 05:51:23;;;;;;;41.80;19.80;;;;;;;-8.81;72.83;100206.55;103566;1317;22572;-75
2021/12/26 05:54:15;;;;;;;44.40;20.00;;;;;;;-8.81;72.82;100213.76;103322;1316;200704;-78
2021/12/26 05:56:43;;;;;;;33.00;17.20;;;;;;;-8.75;72.77;100215.48;103449;1316;22593;-78
2021/12/26 05:59:10;;;;;;;45.30;20.30;;;;;;;-8.77;72.70;100209.21;103608;1317;22564;-76
2021/12/26 06:01:38;;;;;;;37.60;18.20;;;;;;;-8.70;72.74;100213.80;103776;1317;22616;-78
2021/12/26 06:04:05;;;;;;;45.90;21.40;;;;;;;-8.77;72.19;100213.33;104615;1317;23129;-76
2021/12/26 06:06:32;;;;;;;43.20;20.70;;;;;;;-8.80;72.56;100217.02;105812;1317;24221;-77
2021/12/26 06:08:59;;;;;;;37.30;20.00;;;;;;;-8.71;72.54;100219.88;104878;1316;24314;-77
2021/12/26 06:11:26;;;;;;;42.60;20.00;;;;;;;-8.66;72.51;100219.96;104313;1317;23018;-77
2021/12/26 06:13:53;;;;;;;37.90;19.70;;;;;;;-8.54;72.74;100223.65;103839;1317;25384;-78
2021/12/26 06:16:19;;;;;;;44.30;19.40;;;;;;;-8.44;72.48;100222.23;103412;1317;22657;-77
2021/12/26 06:18:47;;;;;;;43.90;20.00;;;;;;;-8.49;71.93;100229.61;103491;1317;22606;-77
2021/12/26 06:21:33;;;;;;;33.00;14.20;;;;;;;-8.61;71.58;100235.38;103516;1311;22578;-77
2021/12/26 06:24:38;;;;;;;44.60;19.80;;;;;;;-8.85;71.49;100247.14;103052;1323;22564;-80
2021/12/26 06:27:30;;;;;;;48.60;21.40;;;;;;;-8.93;72.18;100252.38;103139;1324;22590;-80
2021/12/26 06:30:20;;;;;;;50.70;22.70;;;;;;;-9.02;72.53;100251.48;103454;1317;22585;-79
2021/12/26 06:33:02;;;;;;;43.10;20.70;;;;;;;-9.04;72.70;100259.33;103635;1317;24216;-82
2021/12/26 06:35:56;;;;;;;47.80;23.10;;;;;;;-9.09;73.14;100250.69;103608;1317;24681;-77
2021/12/26 06:38:43;;;;;;;45.10;20.90;;;;;;;-9.01;73.39;100264.67;103578;1317;24299;-79
2021/12/26 06:41:29;;;;;;;41.30;20.20;;;;;;;-9.08;73.64;100266.98;103676;1317;22768;-79
2021/12/26 06:44:07;;;;;;;;;;;;;;;-9.07;73.91;100268.33;103441;1318;22551;-78
2021/12/26 06:46:56;;;;;;;50.30;22.80;;;;;;;-8.99;74.32;100273.48;103779;1314;22641;-77
2021/12/26 06:49:32;;;;;;;52.20;22.80;;;;;;;-8.87;74.51;100274.83;103760;1317;24455;-77
2021/12/26 06:52:02;;;;;;;43.10;20.80;;;;;;;-8.80;74.31;100268.14;103590;1317;25306;-77
2021/12/26 06:54:28;;;;;;;48.30;22.40;;;;;;;-8.65;74.54;100274.50;103514;1317;24350;-77
2021/12/26 06:56:56;;;;;;;44.10;21.50;;;;;;;-8.55;74.63;100269.35;103503;1317;23986;-76
2021/12/26 06:59:24;;;;;;;43.10;19.40;;;;;;;-8.36;74.48;100279.63;103604;1317;22812;-78
2021/12/26 07:01:51;;;;;;;43.80;18.80;;;;;;;-8.38;74.25;100275.39;104331;1317;24001;-77
2021/12/26 07:04:19;;;;;;;40.80;22.00;;;;;;;-8.34;74.47;100282.15;103542;1313;25645;-78
2021/12/26 07:06:46;;;;;;;51.40;20.90;;;;;;;-8.35;74.40;100287.75;103773;1317;22581;-77
2021/12/26 07:09:33;;;;;;;44.30;21.40;;;;;;;-8.30;74.83;100291.14;103409;1317;22624;-78
2021/12/26 07:12:00;;;;;;;50.00;21.30;;;;;;;-8.34;74.70;100286.79;103546;1318;25410;-78
2021/12/26 07:14:41;;;;;;;44.50;21.00;;;;;;;-8.36;74.97;100294.65;103860;1316;25229;-77
2021/12/26 07:17:10;;;;;;;40.30;18.10;;;;;;;-8.32;75.26;100300.38;104064;1317;22579;-76
2021/12/26 07:19:39;;;;;;;53.80;24.80;;;;;;;-8.29;75.40;100301.63;104244;1316;22617;-81
2021/12/26 07:22:28;;;;;;;48.50;23.30;;;;;;;-8.36;75.00;100300.79;104256;1313;22577;-82
2021/12/26 07:24:55;;;;;;;46.50;21.00;;;;;;;-8.38;75.37;100298.43;103678;1318;22745;-80
2021/12/26 07:27:22;;;;;;;49.60;23.50;;;;;;;-8.39;75.47;100295.13;103588;1317;23969;-79
2021/12/26 07:30:10;;;;;;;46.10;22.20;;;;;;;-8.31;75.93;100302.54;103585;1317;22574;-77
2021/12/26 07:32:37;;;;;;;48.00;22.60;;;;;;;-8.21;75.83;100305.02;103366;1315;24304;-79
2021/12/26 07:35:05;;;;;;;42.90;20.40;;;;;;;-8.09;75.84;100312.45;103543;1317;22792;-78
2021/12/26 07:37:31;;;;;;;45.10;22.10;;;;;;;-8.08;75.58;100312.15;103461;1317;25455;-77
2021/12/26 07:39:58;;;;;;;39.90;18.00;;;;;;;-8.03;76.16;100313.70;103508;1317;22646;-78
2021/12/26 07:42:26;;;;;;;33.90;15.90;;;;;;;-8.04;76.11;100314.48;103667;1317;25407;-81
2021/12/26 07:45:12;;;;;;;43.60;18.80;;;;;;;-8.11;75.94;100310.64;103564;1314;25294;-80
2021/12/26 07:47:45;;;;;;;44.00;20.40;;;;;;;-8.13;76.41;100314.27;103650;1317;22587;-79
2021/12/26 07:50:12;;;;;;;43.90;21.40;;;;;;;-8.15;76.67;100313.48;103837;1317;22587;-80
2021/12/26 07:53:04;;;;;;;46.30;22.30;;;;;;;-8.04;76.82;100317.95;103671;1317;25491;-75
2021/12/26 07:55:50;;;;;;;46.20;21.70;;;;;;;-7.96;77.11;100317.08;103683;1315;22712;-80
2021/12/26 07:58:35;;;;;;;36.50;16.10;;;;;;;-7.78;77.42;100314.94;103721;1312;25391;-78
2021/12/26 08:01:41;;;;;;;50.90;23.40;;;;;;;-7.63;77.20;100320.83;102930;1325;25886;-75
2021/12/26 08:04:29;;;;;;;44.90;21.00;;;;;;;-7.52;77.16;100325.23;102457;1330;25391;-75
2021/12/26 08:07:16;;;;;;;37.30;17.20;;;;;;;-7.46;76.97;100331.29;102597;1325;22679;-76
2021/12/26 08:09:43;;;;;;;40.00;18.40;;;;;;;-7.40;77.12;100331.67;103029;1322;24253;-77
2021/12/26 08:12:10;;;;;;;28.50;14.30;;;;;;;-7.41;76.83;100328.66;103036;1322;24108;-78
2021/12/26 08:14:37;;;;;;;42.30;18.70;;;;;;;-7.46;76.82;100328.38;102982;1322;26700;-75
2021/12/26 08:17:05;;;;;;;43.70;21.20;;;;;;;-7.44;77.05;100328.98;103004;1322;22631;-75
2021/12/26 08:19:32;;;;;;;45.80;18.00;;;;;;;-7.39;77.16;100329.31;102924;1320;22663;-78
2021/12/26 08:21:59;;;;;;;37.00;18.90;;;;;;;-7.31;77.56;100325.34;102885;1322;23185;-88
2021/12/26 08:24:26;;;;;;;30.80;13.30;;;;;;;-7.21;77.64;100326.15;102834;1322;26549;-79
2021/12/26 08:26:54;;;;;;;37.50;18.60;;;;;;;-7.16;77.41;100329.17;102902;1325;25354;-80
2021/12/26 08:29:23;;;;;;;38.60;17.30;;;;;;;-7.12;77.66;100335.39;103122;1322;22700;-77
2021/12/26 08:31:56;;;;;;;39.60;17.00;;;;;;;-7.01;77.66;100342.89;103038;1321;25316;-80
2021/12/26 08:34:25;;;;;;;55.20;23.20;;;;;;;-7.00;77.22;100343.86;103084;1319;22645;-79
2021/12/26 08:37:00;;;;;;;39.70;19.10;;;;;;;-6.97;76.78;100345.08;102960;1325;25762;-82
2021/12/26 08:39:37;;;;;;;51.80;21.80;;;;;;;-7.01;76.54;100344.84;103058;1325;25660;-80
2021/12/26 08:42:06;;;;;;;44.90;21.40;;;;;;;-7.00;76.72;100346.60;103020;1317;25502;-80
2021/12/26 08:44:34;;;;;;;43.30;22.40;;;;;;;-6.94;76.67;100344.19;103492;1317;25378;-79
2021/12/26 08:47:03;;;;;;;41.70;21.40;;;;;;;-6.91;75.93;100343.66;103374;1317;23983;-80
2021/12/26 08:49:43;;;;;;;39.80;20.00;;;;;;;-6.85;75.91;100350.71;103608;1317;23972;-79
2021/12/26 08:52:11;;;;;;;42.30;19.20;;;;;;;-6.82;75.76;100353.45;103565;1317;25422;-79
2021/12/26 08:54:39;;;;;;;41.20;20.20;;;;;;;-6.83;75.37;100355.64;103556;1313;25889;-79
2021/12/26 08:57:08;;;;;;;52.60;24.10;;;;;;;-6.86;75.38;100356.83;103755;1317;22887;-79
2021/12/26 08:59:36;;;;;;;33.10;14.80;;;;;;;-6.74;75.60;100355.84;103673;1317;24687;-78
2021/12/26 09:02:06;;;;;;;40.70;18.10;;;;;;;-6.75;74.95;100359.88;103735;1317;22716;-79
2021/12/26 09:04:35;;;;;;;42.20;21.50;;;;;;;-6.76;74.93;100369.91;103761;1317;22708;-79
2021/12/26 09:07:02;;;;;;;35.50;19.30;;;;;;;-6.81;75.06;100367.42;103376;1319;22574;-85
2021/12/26 09:09:29;;;;;;;37.00;19.80;;;;;;;-6.77;75.18;100372.95;103513;1316;24400;-81
2021/12/26 09:11:58;;;;;;;39.70;21.50;;;;;;;-6.78;74.80;100367.09;103543;1317;24439;-78
2021/12/26 09:14:28;;;;;;;44.00;20.90;;;;;;;-6.79;75.11;100363.73;103735;1316;22719;-79
2021/12/26 09:16:56;;;;;;;36.60;19.50;;;;;;;-6.72;75.24;100366.93;103526;1319;24267;-79
2021/12/26 09:19:27;;;;;;;26.20;13.80;;;;;;;-6.67;75.10;100362.25;103073;1322;24237;-81
2021/12/26 09:22:00;;;;;;;40.90;21.00;;;;;;;-6.69;74.60;100357.67;103246;1322;24681;-80
2021/12/26 09:24:27;;;;;;;38.10;18.20;;;;;;;-6.76;74.64;100358.65;103093;1325;22600;-81
2021/12/26 09:26:54;;;;;;;33.90;18.80;;;;;;;-6.78;75.03;100349.26;103155;1324;22860;-79
2021/12/26 09:29:22;;;;;;;38.30;20.00;;;;;;;-6.81;75.01;100347.87;103029;1316;22705;-79
2021/12/26 09:31:50;;;;;;;39.70;21.30;;;;;;;-6.83;75.13;100353.59;103056;1323;25332;-78
2021/12/26 09:34:18;;;;;;;42.80;23.50;;;;;;;-6.86;75.13;100348.44;103152;1324;24253;-77
2021/12/26 09:36:45;;;;;;;44.40;21.80;;;;;;;-6.82;75.40;100346.63;103033;1318;22577;-79
2021/12/26 09:39:14;;;;;;;41.70;20.60;;;;;;;-6.75;75.35;100350.45;103519;1318;22579;-83
2021/12/26 09:41:41;;;;;;;43.30;20.60;;;;;;;-6.65;75.34;100353.76;103519;1319;22582;-86
2021/12/26 09:44:09;;;;;;;41.30;19.70;;;;;;;-6.62;74.94;100352.25;103655;1318;22911;-80
2021/12/26 09:46:37;;;;;;;47.60;23.20;;;;;;;-6.60;75.00;100360.58;103619;1318;25266;-80
2021/12/26 09:49:04;;;;;;;49.90;23.90;;;;;;;-6.56;74.97;100358.40;103419;1319;22606;-79
2021/12/26 09:51:33;;;;;;;45.70;22.10;;;;;;;-6.46;74.99;100359.17;103376;1318;22558;-82
2021/12/26 09:54:00;;;;;;;36.10;18.30;;;;;;;-6.36;74.92;100354.45;103121;1321;25316;-81
2021/12/26 09:56:28;;;;;;;31.10;17.80;;;;;;;-6.18;74.81;100359.94;103287;1322;25519;-80
2021/12/26 09:59:07;;;;;;;43.10;22.90;;;;;;;-6.14;74.04;100366.16;103133;1322;25557;-81
2021/12/26 10:01:45;;;;;;;44.30;21.80;;;;;;;-6.06;74.15;100365.23;104477;1315;22568;-82
2021/12/26 10:04:33;;;;;;;34.00;17.20;;;;;;;-5.98;73.58;100358.67;103165;1320;22575;-84
2021/12/26 10:07:11;;;;;;;39.20;19.00;;;;;;;-6.01;72.92;100364.13;103209;1322;22827;-79
2021/12/26 10:09:43;;;;;;;38.20;20.20;;;;;;;-6.12;73.01;100359.96;103327;1321;25290;-79
2021/12/26 10:12:13;;;;;;;40.90;21.10;;;;;;;-6.05;73.10;100355.02;103196;1319;25612;-80
2021/12/26 10:14:43;;;;;;;41.90;22.40;;;;;;;-6.06;72.82;100361.27;103545;1319;24275;-80
2021/12/26 10:17:31;;;;;;;35.00;20.00;;;;;;;-6.06;72.64;100364.70;103603;1319;22730;-80
2021/12/26 10:20:09;;;;;;;37.70;20.20;;;;;;;-6.09;72.68;100367.16;103685;1317;25912;-83
2021/12/26 10:22:36;;;;;;;39.70;20.70;;;;;;;-6.03;72.74;100367.98;103509;1318;22566;-81
2021/12/26 10:25:12;;;;;;;40.40;20.50;;;;;;;-6.05;72.16;100368.56;103474;1319;22552;-82
2021/12/26 10:27:41;;;;;;;44.40;23.00;;;;;;;-6.05;72.69;100372.00;103818;1319;22582;-80
2021/12/26 10:30:15;;;;;;;40.80;20.60;;;;;;;-6.01;72.44;100365.18;103512;1319;22584;-91
2021/12/26 10:32:42;;;;;;;41.00;21.20;;;;;;;-5.94;72.23;100372.74;103552;1317;22593;-81
2021/12/26 10:35:15;;;;;;;45.20;21.50;;;;;;;-6.00;72.40;100373.11;103720;1318;22581;-85
2021/12/26 10:37:48;;;;;;;36.30;20.40;;;;;;;-5.91;72.52;100375.83;103492;1319;22598;-79
2021/12/26 10:40:22;;;;;;;36.00;18.30;;;;;;;-5.94;72.29;100372.05;103726;1319;22773;-79
2021/12/26 10:42:52;;;;;;;30.90;15.20;;;;;;;-5.93;72.33;100374.66;103602;1318;25535;-78
2021/12/26 10:45:23;;;;;;;35.10;18.10;;;;;;;-5.95;72.18;100375.44;103601;1320;23998;-81
2021/12/26 10:47:53;;;;;;;27.90;15.30;;;;;;;-5.98;72.38;100381.30;103544;1319;22606;-80
2021/12/26 10:50:23;;;;;;;29.40;16.30;;;;;;;-5.96;72.65;100387.38;103859;1319;22684;-77
2021/12/26 10:53:01;;;;;;;36.80;20.40;;;;;;;-5.88;72.79;100386.79;103633;1316;22590;-80
2021/12/26 10:55:29;;;;;;;40.00;20.00;;;;;;;-5.84;72.60;100388.55;103340;1318;25895;-81
2021/12/26 10:57:59;;;;;;;39.20;20.70;;;;;;;-5.75;72.92;100389.28;103288;1318;25234;-79
2021/12/26 11:00:28;;;;;;;36.70;16.70;;;;;;;-5.70;72.64;100389.35;103690;1318;24353;-79
2021/12/26 11:03:00;;;;;;;40.70;20.40;;;;;;;-5.72;72.83;100386.52;103650;1318;24796;-80
2021/12/26 11:05:45;;;;;;;29.70;17.90;;;;;;;-5.69;72.95;100379.45;103125;1318;24251;-81
2021/12/26 11:08:14;;;;;;;27.60;15.80;;;;;;;-5.64;72.70;100386.41;103081;1318;23970;-85
2021/12/26 11:10:46;;;;;;;37.80;20.50;;;;;;;-5.79;72.29;100385.95;103161;1318;22758;-80
2021/12/26 11:13:23;;;;;;;36.20;20.10;;;;;;;-5.81;73.02;100391.29;103590;1318;24554;-83
2021/12/26 11:15:56;;;;;;;37.00;20.30;;;;;;;-5.71;73.33;100392.02;103360;1318;22566;-80
2021/12/26 11:18:23;;;;;;;26.20;13.90;;;;;;;-5.55;73.48;100389.66;103532;1319;25410;-82
2021/12/26 11:20:55;;;;;;;36.40;19.20;;;;;;;-5.54;72.97;100389.38;103157;1313;24306;-80
2021/12/26 11:23:34;;;;;;;32.90;17.30;;;;;;;-5.64;72.96;100387.13;103450;1318;24242;-81
2021/12/26 11:26:10;;;;;;;40.50;21.40;;;;;;;-5.60;73.37;100384.42;103225;1318;22811;-82
2021/12/26 11:28:40;;;;;;;34.10;18.60;;;;;;;-5.58;73.36;100386.10;103689;1318;24214;-81
2021/12/26 11:31:12;;;;;;;34.60;20.20;;;;;;;-5.57;73.15;100383.70;103595;1317;22803;-80
2021/12/26 11:33:40;;;;;;;29.40;16.80;;;;;;;-5.50;73.70;100390.13;103314;1318;26657;-80
2021/12/26 11:36:10;;;;;;;35.90;19.60;;;;;;;-5.34;73.71;100392.40;104070;1318;24227;-80
2021/12/26 11:38:39;;;;;;;37.50;18.30;;;;;;;-5.22;73.40;100388.05;103712;1318;24424;-83
2021/12/26 11:41:40;;;;;;;25.10;15.60;;;;;;;-5.22;73.37;100386.48;103470;1318;22614;-80
2021/12/26 11:45:01;;;;;;;27.60;14.10;;;;;;;-5.20;73.56;100389.52;103489;1311;24289;-80
2021/12/26 11:52:58;;;;;;;39.00;20.20;;;;;;;-5.29;73.17;100384.94;103487;1317;22596;-81
2021/12/26 11:55:38;;;;;;;38.80;20.10;;;;;;;-5.23;73.40;100373.55;103494;1319;22572;-81
2021/12/26 11:58:28;;;;;;;33.50;18.70;;;;;;;-5.15;73.58;100362.16;103110;1325;22607;-80
2021/12/26 12:00:58;;;;;;;35.10;20.00;;;;;;;-4.99;73.71;100360.08;103047;1325;23991;-82
2021/12/26 12:03:29;;;;;;;36.80;20.70;;;;;;;-4.81;73.27;100356.73;102948;1326;25721;-80
2021/12/26 12:05:58;;;;;;;43.30;22.10;;;;;;;-4.65;73.18;100359.58;103026;1325;24511;-81
2021/12/26 12:08:27;;;;;;;37.30;18.90;;;;;;;-4.58;72.56;100357.20;102809;1326;25374;-81
2021/12/26 12:10:54;;;;;;;31.60;17.90;;;;;;;-4.57;72.89;100359.66;102941;1324;22607;-81